Atlantic Beach, North Carolina
Current Conditions -  °F | °C
As of 4:58 PM on Tuesday 21 Oct 2014 (Local Time) from KMRH Reporting Station
Clear Clear  
Wind Chill: 72°   Ceiling: Unl
Heat Index: 72°   Visibility: 10mi
Dew Point: 59°   Wind: 14mph
Humidity: 64%   Direction: 210°SSW
Pressure: 29.84"   Gusts: NA
Location:  34.7°N, 76.74°W
Report Text: KMRH 212058Z AUTO 21012KT 10SM CLR 22/15 A2984 RMK AO2 SLP105 T02220150 55009 TSNO
Loading
Personal Weather Stations






























Interactive Weather Map
Tropical Storm Tracking
New forecast layout! Learn more

10-Day Weather Forecast

Advertisements
Track Severe Weather on mobile